sensor_id;sensor_type;location;lat;lon;timestamp;pressure;altitude;pressure_sealevel;temperature;humidity
68301;BME280;55146;47.468;18.806;2023-01-28T00:02:20;100129.97;;;1.70;91.08
68301;BME280;55146;47.468;18.806;2023-01-28T00:04:45;100120.38;;;1.67;91.15
68301;BME280;55146;47.468;18.806;2023-01-28T00:07:11;100125.37;;;1.70;91.06
68301;BME280;55146;47.468;18.806;2023-01-28T00:09:36;100134.31;;;1.77;90.79
68301;BME280;55146;47.468;18.806;2023-01-28T00:12:04;100129.50;;;1.79;90.46
68301;BME280;55146;47.468;18.806;2023-01-28T00:14:29;100133.25;;;1.85;89.99
68301;BME280;55146;47.468;18.806;2023-01-28T00:16:55;100139.94;;;1.82;89.94
68301;BME280;55146;47.468;18.806;2023-01-28T00:19:20;100138.47;;;1.80;90.08
68301;BME280;55146;47.468;18.806;2023-01-28T00:21:45;100131.41;;;1.79;89.99
68301;BME280;55146;47.468;18.806;2023-01-28T00:24:11;100141.19;;;1.80;90.27
68301;BME280;55146;47.468;18.806;2023-01-28T00:26:36;100144.72;;;1.80;90.32
68301;BME280;55146;47.468;18.806;2023-01-28T00:29:02;100138.25;;;1.81;90.44
68301;BME280;55146;47.468;18.806;2023-01-28T00:31:27;100137.59;;;1.86;90.55
68301;BME280;55146;47.468;18.806;2023-01-28T00:33:54;100143.06;;;1.79;90.70
68301;BME280;55146;47.468;18.806;2023-01-28T00:36:22;100144.72;;;1.80;90.70
68301;BME280;55146;47.468;18.806;2023-01-28T00:38:49;100140.97;;;1.81;90.22
68301;BME280;55146;47.468;18.806;2023-01-28T00:41:17;100142.81;;;1.87;90.31
68301;BME280;55146;47.468;18.806;2023-01-28T00:43:43;100143.44;;;1.89;90.04
68301;BME280;55146;47.468;18.806;2023-01-28T00:46:10;100142.78;;;1.94;89.76
68301;BME280;55146;47.468;18.806;2023-01-28T00:48:37;100146.31;;;1.94;89.72
68301;BME280;55146;47.468;18.806;2023-01-28T00:51:03;100142.59;;;1.89;89.39
68301;BME280;55146;47.468;18.806;2023-01-28T00:53:30;100142.59;;;1.89;90.10
68301;BME280;55146;47.468;18.806;2023-01-28T00:55:55;100142.16;;;1.92;89.91
68301;BME280;55146;47.468;18.806;2023-01-28T00:58:21;100150.09;;;1.93;89.73
68301;BME280;55146;47.468;18.806;2023-01-28T01:00:48;100158.84;;;1.95;89.95
68301;BME280;55146;47.468;18.806;2023-01-28T01:03:16;100156.75;;;1.97;89.79
68301;BME280;55146;47.468;18.806;2023-01-28T01:05:41;100150.06;;;2.00;89.55
68301;BME280;55146;47.468;18.806;2023-01-28T01:08:07;100156.69;;;2.04;89.29
68301;BME280;55146;47.468;18.806;2023-01-28T01:10:32;100154.63;;;1.99;89.21
68301;BME280;55146;47.468;18.806;2023-01-28T01:12:59;100157.12;;;2.01;89.23
68301;BME280;55146;47.468;18.806;2023-01-28T01:15:24;100156.75;;;1.97;89.39
68301;BME280;55146;47.468;18.806;2023-01-28T01:17:51;100152.37;;;1.96;89.42
68301;BME280;55146;47.468;18.806;2023-01-28T01:20:22;100153.81;;;1.99;89.63
68301;BME280;55146;47.468;18.806;2023-01-28T01:22:48;100160.50;;;1.96;89.64
68301;BME280;55146;47.468;18.806;2023-01-28T01:25:15;100161.94;;;1.99;89.54
68301;BME280;55146;47.468;18.806;2023-01-28T01:27:41;100151.53;;;1.96;89.52
68301;BME280;55146;47.468;18.806;2023-01-28T01:30:08;100159.69;;;1.96;89.69
68301;BME280;55146;47.468;18.806;2023-01-28T01:32:35;100156.97;;;1.96;89.89
68301;BME280;55146;47.468;18.806;2023-01-28T01:35:01;100156.13;;;1.95;89.93
68301;BME280;55146;47.468;18.806;2023-01-28T01:37:28;100153.41;;;1.95;89.97
68301;BME280;55146;47.468;18.806;2023-01-28T01:39:53;100160.53;;;1.90;90.17
68301;BME280;55146;47.468;18.806;2023-01-28T01:42:19;100159.88;;;1.94;90.15
68301;BME280;55146;47.468;18.806;2023-01-28T01:45:04;100165.31;;;1.94;90.16
68301;BME280;55146;47.468;18.806;2023-01-28T01:47:46;100154.25;;;1.96;90.11
68301;BME280;55146;47.468;18.806;2023-01-28T01:52:45;100159.88;;;1.94;90.11
68301;BME280;55146;47.468;18.806;2023-01-28T01:55:16;100159.22;;;1.99;89.97
68301;BME280;55146;47.468;18.806;2023-01-28T01:57:43;100166.13;;;2.01;89.92
68301;BME280;55146;47.468;18.806;2023-01-28T02:00:11;100160.06;;;1.99;89.74
68301;BME280;55146;47.468;18.806;2023-01-28T02:02:45;100167.38;;;1.99;89.68
68301;BME280;55146;47.468;18.806;2023-01-28T02:05:15;100160.28;;;1.98;89.62
68301;BME280;55146;47.468;18.806;2023-01-28T02:07:42;100164.06;;;1.97;89.51
68301;BME280;55146;47.468;18.806;2023-01-28T02:10:08;100164.94;;;1.91;89.65
68301;BME280;55146;47.468;18.806;2023-01-28T02:12:47;100164.91;;;1.97;89.75
68301;BME280;55146;47.468;18.806;2023-01-28T02:15:19;100164.47;;;1.94;89.73
68301;BME280;55146;47.468;18.806;2023-01-28T02:17:47;100162.37;;;1.96;89.66
68301;BME280;55146;47.468;18.806;2023-01-28T02:20:41;100165.09;;;1.96;89.88
68301;BME280;55146;47.468;18.806;2023-01-28T02:26:18;100156.34;;;1.94;90.20
68301;BME280;55146;47.468;18.806;2023-01-28T02:31:33;100159.69;;;1.96;89.96
68301;BME280;55146;47.468;18.806;2023-01-28T02:36:57;100160.06;;;1.99;89.60
68301;BME280;55146;47.468;18.806;2023-01-28T02:39:31;100156.34;;;1.94;89.92
68301;BME280;55146;47.468;18.806;2023-01-28T02:42:04;100160.53;;;1.90;90.18
68301;BME280;55146;47.468;18.806;2023-01-28T02:44:30;100161.12;;;1.92;90.32
68301;BME280;55146;47.468;18.806;2023-01-28T02:46:55;100167.44;;;1.86;90.69
68301;BME280;55146;47.468;18.806;2023-01-28T02:49:48;100157.88;;;1.83;90.89
68301;BME280;55146;47.468;18.806;2023-01-28T02:52:45;100150.56;;;1.84;90.97
68301;BME280;55146;47.468;18.806;2023-01-28T03:04:00;100161.16;;;1.85;90.93
68301;BME280;55146;47.468;18.806;2023-01-28T03:06:38;100153.31;;;1.77;91.70
68301;BME280;55146;47.468;18.806;2023-01-28T03:09:06;100157.25;;;1.75;92.19
68301;BME280;55146;47.468;18.806;2023-01-28T03:12:05;100165.00;;;1.78;92.38
68301;BME280;55146;47.468;18.806;2023-01-28T03:14:59;100168.12;;;1.75;92.34
68301;BME280;55146;47.468;18.806;2023-01-28T03:17:51;100169.56;;;1.77;92.17
68301;BME280;55146;47.468;18.806;2023-01-28T03:23:53;100168.53;;;1.78;92.03
68301;BME280;55146;47.468;18.806;2023-01-28T03:26:47;100168.72;;;1.83;91.55
68301;BME280;55146;47.468;18.806;2023-01-28T03:29:35;100165.22;;;1.70;92.22
68301;BME280;55146;47.468;18.806;2023-01-28T03:32:21;100164.75;;;1.79;91.86
68301;BME280;55146;47.468;18.806;2023-01-28T03:35:07;100157.25;;;1.75;91.65
68301;BME280;55146;47.468;18.806;2023-01-28T03:37:53;100162.87;;;1.80;91.27
68301;BME280;55146;47.468;18.806;2023-01-28T03:40:18;100164.53;;;1.81;91.30
68301;BME280;55146;47.468;18.806;2023-01-28T03:42:44;100167.06;;;1.76;91.35
68301;BME280;55146;47.468;18.806;2023-01-28T03:45:10;100165.00;;;1.71;91.70
68301;BME280;55146;47.468;18.806;2023-01-28T03:47:36;100164.56;;;1.74;91.75
68301;BME280;55146;47.468;18.806;2023-01-28T03:50:02;100171.28;;;1.65;92.00
68301;BME280;55146;47.468;18.806;2023-01-28T03:52:32;100168.12;;;1.68;91.92
68301;BME280;55146;47.468;18.806;2023-01-28T03:54:57;100175.66;;;1.73;92.01
68301;BME280;55146;47.468;18.806;2023-01-28T03:57:26;100175.44;;;1.68;92.10
68301;BME280;55146;47.468;18.806;2023-01-28T03:59:52;100171.28;;;1.72;91.84
68301;BME280;55146;47.468;18.806;2023-01-28T04:02:19;100170.25;;;1.66;92.19
68301;BME280;55146;47.468;18.806;2023-01-28T04:04:45;100171.28;;;1.65;92.37
68301;BME280;55146;47.468;18.806;2023-01-28T04:07:12;100171.28;;;1.72;92.02
68301;BME280;55146;47.468;18.806;2023-01-28T04:09:41;100177.53;;;1.72;92.00
68301;BME280;55146;47.468;18.806;2023-01-28T04:12:08;100179.59;;;1.77;91.80
68301;BME280;55146;47.468;18.806;2023-01-28T04:14:33;100178.78;;;1.70;92.10
68301;BME280;55146;47.468;18.806;2023-01-28T04:16:59;100170.00;;;1.74;92.05
68301;BME280;55146;47.468;18.806;2023-01-28T04:19:25;100176.25;;;1.75;91.94
68301;BME280;55146;47.468;18.806;2023-01-28T04:21:51;100177.91;;;1.76;91.78
68301;BME280;55146;47.468;18.806;2023-01-28T04:24:20;100176.72;;;1.65;92.09
68301;BME280;55146;47.468;18.806;2023-01-28T04:26:46;100187.56;;;1.65;92.42
68301;BME280;55146;47.468;18.806;2023-01-28T04:29:11;100196.28;;;1.67;92.52
68301;BME280;55146;47.468;18.806;2023-01-28T04:31:37;100186.53;;;1.66;92.64
68301;BME280;55146;47.468;18.806;2023-01-28T04:34:02;100190.28;;;1.65;92.74
68301;BME280;55146;47.468;18.806;2023-01-28T04:36:27;100184.59;;;1.73;92.48
68301;BME280;55146;47.468;18.806;2023-01-28T04:38:53;100192.16;;;1.65;92.51
68301;BME280;55146;47.468;18.806;2023-01-28T04:41:18;100198.16;;;1.73;92.09
68301;BME280;55146;47.468;18.806;2023-01-28T04:43:44;100199.19;;;1.79;91.96
68301;BME280;55146;47.468;18.806;2023-01-28T04:46:10;100193.16;;;1.77;91.82
68301;BME280;55146;47.468;18.806;2023-01-28T04:48:35;100194.81;;;1.78;91.57
68301;BME280;55146;47.468;18.806;2023-01-28T04:51:02;100194.81;;;1.78;91.51
68301;BME280;55146;47.468;18.806;2023-01-28T04:53:28;100197.72;;;1.76;90.94
68301;BME280;55146;47.468;18.806;2023-01-28T04:55:54;100203.19;;;1.63;91.81
68301;BME280;55146;47.468;18.806;2023-01-28T04:58:19;100197.13;;;1.68;91.57
68301;BME280;55146;47.468;18.806;2023-01-28T05:00:45;100192.97;;;1.65;91.70
68301;BME280;55146;47.468;18.806;2023-01-28T05:03:10;100196.09;;;1.62;91.98
68301;BME280;55146;47.468;18.806;2023-01-28T05:05:35;100202.78;;;1.66;92.17
68301;BME280;55146;47.468;18.806;2023-01-28T05:08:01;100207.75;;;1.69;92.05
68301;BME280;55146;47.468;18.806;2023-01-28T05:10:26;100202.78;;;1.66;92.35
68301;BME280;55146;47.468;18.806;2023-01-28T05:12:53;100206.94;;;1.69;90.73
68301;BME280;55146;47.468;18.806;2023-01-28T05:15:19;100212.16;;;1.63;91.62
68301;BME280;55146;47.468;18.806;2023-01-28T05:17:45;100210.28;;;1.64;91.81
68301;BME280;55146;47.468;18.806;2023-01-28T05:20:12;100210.69;;;1.61;91.91
68301;BME280;55146;47.468;18.806;2023-01-28T05:22:38;100217.78;;;1.62;91.74
68301;BME280;55146;47.468;18.806;2023-01-28T05:25:04;100221.56;;;1.54;92.13
68301;BME280;55146;47.468;18.806;2023-01-28T05:27:30;100230.75;;;1.60;91.80
68301;BME280;55146;47.468;18.806;2023-01-28T05:29:57;100229.28;;;1.57;92.16
68301;BME280;55146;47.468;18.806;2023-01-28T05:32:22;100228.03;;;1.67;91.25
68301;BME280;55146;47.468;18.806;2023-01-28T05:34:48;100220.09;;;1.65;91.18
68301;BME280;55146;47.468;18.806;2023-01-28T05:37:13;100231.31;;;1.69;91.21
68301;BME280;55146;47.468;18.806;2023-01-28T05:39:38;100225.31;;;1.67;91.43
68301;BME280;55146;47.468;18.806;2023-01-28T05:42:04;100223.19;;;1.69;91.27
68301;BME280;55146;47.468;18.806;2023-01-28T05:44:29;100229.03;;;1.72;91.44
68301;BME280;55146;47.468;18.806;2023-01-28T05:46:54;100225.69;;;1.70;91.08
68301;BME280;55146;47.468;18.806;2023-01-28T05:49:20;100233.66;;;1.65;91.42
68301;BME280;55146;47.468;18.806;2023-01-28T05:51:46;100234.69;;;1.64;91.59
68301;BME280;55146;47.468;18.806;2023-01-28T05:54:12;100234.03;;;1.69;91.20
68301;BME280;55146;47.468;18.806;2023-01-28T05:56:38;100239.47;;;1.69;91.36
68301;BME280;55146;47.468;18.806;2023-01-28T05:59:04;100240.31;;;1.69;91.41
68301;BME280;55146;47.468;18.806;2023-01-28T06:01:30;100239.06;;;1.65;91.58
68301;BME280;55146;47.468;18.806;2023-01-28T06:03:55;100239.28;;;1.63;91.61
68301;BME280;55146;47.468;18.806;2023-01-28T06:06:20;100243.66;;;1.65;91.57
68301;BME280;55146;47.468;18.806;2023-01-28T06:08:46;100244.06;;;1.68;91.71
68301;BME280;55146;47.468;18.806;2023-01-28T06:11:11;100246.16;;;1.66;91.94
68301;BME280;55146;47.468;18.806;2023-01-28T06:13:37;100243.44;;;1.66;91.79
68301;BME280;55146;47.468;18.806;2023-01-28T06:16:02;100247.22;;;1.65;91.87
68301;BME280;55146;47.468;18.806;2023-01-28T06:18:28;100248.62;;;1.68;91.66
68301;BME280;55146;47.468;18.806;2023-01-28T06:20:53;100260.56;;;1.67;91.78
68301;BME280;55146;47.468;18.806;2023-01-28T06:23:19;100258.25;;;1.63;92.13
68301;BME280;55146;47.468;18.806;2023-01-28T06:25:44;100254.50;;;1.71;91.90
68301;BME280;55146;47.468;18.806;2023-01-28T06:28:09;100257.00;;;1.73;91.82
68301;BME280;55146;47.468;18.806;2023-01-28T06:30:35;100260.50;;;1.73;91.82
68301;BME280;55146;47.468;18.806;2023-01-28T06:33:00;100269.91;;;1.77;91.79
68301;BME280;55146;47.468;18.806;2023-01-28T06:35:25;100269.72;;;1.72;91.93
68301;BME280;55146;47.468;18.806;2023-01-28T06:37:52;100273.66;;;1.70;92.05
68301;BME280;55146;47.468;18.806;2023-01-28T06:40:18;100278.44;;;1.74;92.00
68301;BME280;55146;47.468;18.806;2023-01-28T06:42:44;100275.97;;;1.73;92.34
68301;BME280;55146;47.468;18.806;2023-01-28T06:45:10;100279.72;;;1.78;92.10
68301;BME280;55146;47.468;18.806;2023-01-28T06:47:37;100285.75;;;1.74;92.21
68301;BME280;55146;47.468;18.806;2023-01-28T06:50:03;100281.34;;;1.79;92.35
68301;BME280;55146;47.468;18.806;2023-01-28T06:52:29;100293.88;;;1.74;92.59
68301;BME280;55146;47.468;18.806;2023-01-28T06:54:54;100294.31;;;1.77;92.55
68301;BME280;55146;47.468;18.806;2023-01-28T06:57:19;100298.25;;;1.81;92.70
68301;BME280;55146;47.468;18.806;2023-01-28T06:59:45;100305.78;;;1.73;93.08
68301;BME280;55146;47.468;18.806;2023-01-28T07:02:10;100306.22;;;1.70;92.98
68301;BME280;55146;47.468;18.806;2023-01-28T07:04:36;100310.78;;;1.69;92.73
68301;BME280;55146;47.468;18.806;2023-01-28T07:07:02;100311.44;;;1.71;92.74
68301;BME280;55146;47.468;18.806;2023-01-28T07:09:27;100312.25;;;1.72;92.82
68301;BME280;55146;47.468;18.806;2023-01-28T07:11:52;100314.31;;;1.76;92.65
68301;BME280;55146;47.468;18.806;2023-01-28T07:14:18;100314.31;;;1.83;92.38
68301;BME280;55146;47.468;18.806;2023-01-28T07:16:43;100314.31;;;1.83;91.99
68301;BME280;55146;47.468;18.806;2023-01-28T07:19:08;100319.16;;;1.54;91.97
68301;BME280;55146;47.468;18.806;2023-01-28T07:21:34;100318.09;;;1.55;93.36
68301;BME280;55146;47.468;18.806;2023-01-28T07:23:59;100321.66;;;1.56;93.23
68301;BME280;55146;47.468;18.806;2023-01-28T07:26:24;100323.50;;;1.69;93.10
68301;BME280;55146;47.468;18.806;2023-01-28T07:28:50;100323.94;;;1.66;92.69
68301;BME280;55146;47.468;18.806;2023-01-28T07:31:15;100327.50;;;1.66;93.52
68301;BME280;55146;47.468;18.806;2023-01-28T07:33:40;100331.44;;;1.63;93.11
68301;BME280;55146;47.468;18.806;2023-01-28T07:36:06;100326.22;;;1.69;93.23
68301;BME280;55146;47.468;18.806;2023-01-28T07:38:31;100334.56;;;1.67;93.31
68301;BME280;55146;47.468;18.806;2023-01-28T07:40:57;100330.41;;;1.65;93.41
68301;BME280;55146;47.468;18.806;2023-01-28T07:43:22;100326.03;;;1.70;93.03
68301;BME280;55146;47.468;18.806;2023-01-28T07:45:48;100338.75;;;1.70;93.04
68301;BME280;55146;47.468;18.806;2023-01-28T07:48:13;100330.81;;;1.68;93.20
68301;BME280;55146;47.468;18.806;2023-01-28T07:50:39;100331.84;;;1.74;93.27
68301;BME280;55146;47.468;18.806;2023-01-28T07:53:09;100338.53;;;1.78;93.07
68301;BME280;55146;47.468;18.806;2023-01-28T07:55:35;100334.78;;;1.79;92.65
68301;BME280;55146;47.468;18.806;2023-01-28T07:58:02;100334.16;;;1.77;92.42
68301;BME280;55146;47.468;18.806;2023-01-28T08:00:30;100335.81;;;1.78;92.90
68301;BME280;55146;47.468;18.806;2023-01-28T08:02:57;100344.34;;;1.81;92.84
68301;BME280;55146;47.468;18.806;2023-01-28T08:05:24;100339.75;;;1.82;92.98
68301;BME280;55146;47.468;18.806;2023-01-28T08:07:51;100347.03;;;1.94;92.89
68301;BME280;55146;47.468;18.806;2023-01-28T08:10:17;100346.41;;;1.92;92.85
68301;BME280;55146;47.468;18.806;2023-01-28T08:12:53;100346.41;;;1.92;92.74
68301;BME280;55146;47.468;18.806;2023-01-28T08:15:19;100357.25;;;1.92;92.93
68301;BME280;55146;47.468;18.806;2023-01-28T08:17:44;100350.16;;;1.91;93.10
68301;BME280;55146;47.468;18.806;2023-01-28T08:20:10;100359.56;;;2.02;93.04
68301;BME280;55146;47.468;18.806;2023-01-28T08:22:36;100357.22;;;2.06;92.52
68301;BME280;55146;47.468;18.806;2023-01-28T08:25:01;100364.53;;;2.12;91.85
68301;BME280;55146;47.468;18.806;2023-01-28T08:27:27;100368.06;;;2.12;92.46
68301;BME280;55146;47.468;18.806;2023-01-28T08:29:52;100353.03;;;2.16;92.14
68301;BME280;55146;47.468;18.806;2023-01-28T08:32:18;100361.41;;;2.08;92.21
68301;BME280;55146;47.468;18.806;2023-01-28T08:34:43;100357.88;;;2.08;92.75
68301;BME280;55146;47.468;18.806;2023-01-28T08:37:09;100359.53;;;2.09;93.10
68301;BME280;55146;47.468;18.806;2023-01-28T08:39:34;100357.41;;;2.11;92.90
68301;BME280;55146;47.468;18.806;2023-01-28T08:41:59;100360.97;;;2.04;93.15
68301;BME280;55146;47.468;18.806;2023-01-28T08:44:24;100366.00;;;2.01;93.32
68301;BME280;55146;47.468;18.806;2023-01-28T08:46:50;100368.72;;;2.01;93.64
68301;BME280;55146;47.468;18.806;2023-01-28T08:49:15;100368.72;;;2.01;93.51
68301;BME280;55146;47.468;18.806;2023-01-28T08:51:40;100377.69;;;2.01;94.22
68301;BME280;55146;47.468;18.806;2023-01-28T08:54:06;100375.38;;;2.12;93.79
68301;BME280;55146;47.468;18.806;2023-01-28T08:56:31;100375.56;;;2.17;93.56
68301;BME280;55146;47.468;18.806;2023-01-28T08:58:56;100369.56;;;2.08;93.43
68301;BME280;55146;47.468;18.806;2023-01-28T09:01:22;100372.47;;;2.07;93.10
68301;BME280;55146;47.468;18.806;2023-01-28T09:03:47;100375.19;;;2.07;94.46
68301;BME280;55146;47.468;18.806;2023-01-28T09:06:13;100375.16;;;2.13;94.10
68301;BME280;55146;47.468;18.806;2023-01-28T09:08:39;100375.53;;;2.23;94.30
68301;BME280;55146;47.468;18.806;2023-01-28T09:11:04;100377.66;;;2.21;92.98
68301;BME280;55146;47.468;18.806;2023-01-28T09:13:29;100391.22;;;2.28;93.49
68301;BME280;55146;47.468;18.806;2023-01-28T09:15:55;100373.84;;;2.29;94.33
68301;BME280;55146;47.468;18.806;2023-01-28T09:18:20;100383.25;;;2.39;93.14
68301;BME280;55146;47.468;18.806;2023-01-28T09:20:46;100388.00;;;2.44;92.09
68301;BME280;55146;47.468;18.806;2023-01-28T09:23:12;100383.41;;;2.44;91.34
68301;BME280;55146;47.468;18.806;2023-01-28T09:25:38;100383.84;;;2.41;90.99
68301;BME280;55146;47.468;18.806;2023-01-28T09:28:04;100390.53;;;2.46;91.37
68301;BME280;55146;47.468;18.806;2023-01-28T09:30:29;100388.19;;;2.49;91.37
68301;BME280;55146;47.468;18.806;2023-01-28T09:32:56;100391.38;;;2.46;90.83
68301;BME280;55146;47.468;18.806;2023-01-28T09:35:25;100390.72;;;2.51;91.00
68301;BME280;55146;47.468;18.806;2023-01-28T09:37:50;100393.59;;;2.56;89.32
68301;BME280;55146;47.468;18.806;2023-01-28T09:40:20;100400.91;;;2.55;90.41
68301;BME280;55146;47.468;18.806;2023-01-28T09:45:39;100393.97;;;2.66;88.86
68301;BME280;55146;47.468;18.806;2023-01-28T09:48:13;100399.81;;;2.69;89.26
68301;BME280;55146;47.468;18.806;2023-01-28T09:50:46;100390.03;;;2.62;90.53
68301;BME280;55146;47.468;18.806;2023-01-28T09:56:12;100399.34;;;2.79;89.94
68301;BME280;55146;47.468;18.806;2023-01-28T09:58:40;100392.69;;;2.75;90.08
68301;BME280;55146;47.468;18.806;2023-01-28T10:01:41;100397.22;;;2.88;90.13
68301;BME280;55146;47.468;18.806;2023-01-28T10:07:09;100390.81;;;2.75;90.65
68301;BME280;55146;47.468;18.806;2023-01-28T10:10:29;100390.00;;;2.68;89.75
68301;BME280;55146;47.468;18.806;2023-01-28T10:13:01;100392.44;;;2.83;89.82
68301;BME280;55146;47.468;18.806;2023-01-28T10:19:01;100383.41;;;2.96;89.07
68301;BME280;55146;47.468;18.806;2023-01-28T10:21:35;100382.19;;;2.85;89.32
68301;BME280;55146;47.468;18.806;2023-01-28T10:24:10;100384.03;;;2.91;88.62
68301;BME280;55146;47.468;18.806;2023-01-28T10:26:41;100379.22;;;2.93;89.99
68301;BME280;55146;47.468;18.806;2023-01-28T10:29:23;100387.31;;;3.06;89.30
68301;BME280;55146;47.468;18.806;2023-01-28T10:31:54;100383.03;;;3.17;88.74
68301;BME280;55146;47.468;18.806;2023-01-28T10:34:21;100380.94;;;3.19;89.01
68301;BME280;55146;47.468;18.806;2023-01-28T10:36:48;100384.03;;;3.22;89.05
68301;BME280;55146;47.468;18.806;2023-01-28T10:39:19;100386.50;;;3.31;88.96
68301;BME280;55146;47.468;18.806;2023-01-28T10:41:45;100391.03;;;3.43;88.14
68301;BME280;55146;47.468;18.806;2023-01-28T10:44:35;100380.81;;;3.39;87.45
68301;BME280;55146;47.468;18.806;2023-01-28T10:47:09;100383.06;;;3.42;87.34
68301;BME280;55146;47.468;18.806;2023-01-28T10:49:41;100391.31;;;3.60;87.83
68301;BME280;55146;47.468;18.806;2023-01-28T10:52:13;100389.19;;;3.62;86.77
68301;BME280;55146;47.468;18.806;2023-01-28T10:54:39;100390.53;;;3.78;87.38
68301;BME280;55146;47.468;18.806;2023-01-28T10:57:09;100389.97;;;3.94;85.80
68301;BME280;55146;47.468;18.806;2023-01-28T10:59:37;100387.25;;;3.94;84.95
68301;BME280;55146;47.468;18.806;2023-01-28T11:02:21;100389.72;;;3.95;84.24
68301;BME280;55146;47.468;18.806;2023-01-28T11:05:20;100383.63;;;4.00;84.22
68301;BME280;55146;47.468;18.806;2023-01-28T11:07:50;100388.91;;;3.95;84.98
68301;BME280;55146;47.468;18.806;2023-01-28T11:10:33;100385.81;;;3.66;85.22
68301;BME280;55146;47.468;18.806;2023-01-28T11:13:01;100393.66;;;3.81;85.56
68301;BME280;55146;47.468;18.806;2023-01-28T11:15:27;100385.47;;;3.81;85.77
68301;BME280;55146;47.468;18.806;2023-01-28T11:18:02;100379.00;;;3.82;84.99
68301;BME280;55146;47.468;18.806;2023-01-28T11:20:41;100391.56;;;3.77;84.47
68301;BME280;55146;47.468;18.806;2023-01-28T11:23:21;100387.00;;;3.71;85.37
68301;BME280;55146;47.468;18.806;2023-01-28T11:25:48;100373.53;;;3.82;85.34
68301;BME280;55146;47.468;18.806;2023-01-28T11:28:17;100375.19;;;3.83;84.55
68301;BME280;55146;47.468;18.806;2023-01-28T11:30:50;100369.94;;;3.88;84.39
68301;BME280;55146;47.468;18.806;2023-01-28T11:33:19;100378.59;;;3.79;83.71
68301;BME280;55146;47.468;18.806;2023-01-28T11:35:53;100367.78;;;3.90;83.73
68301;BME280;55146;47.468;18.806;2023-01-28T11:38:21;100372.47;;;3.83;83.10
68301;BME280;55146;47.468;18.806;2023-01-28T11:40:51;100362.94;;;3.74;83.56
68301;BME280;55146;47.468;18.806;2023-01-28T11:43:25;100371.12;;;3.92;84.67
68301;BME280;55146;47.468;18.806;2023-01-28T11:51:29;100370.44;;;3.97;83.55
68301;BME280;55146;47.468;18.806;2023-01-28T11:54:22;100370.16;;;4.05;84.33
68301;BME280;55146;47.468;18.806;2023-01-28T11:57:15;100361.38;;;4.03;83.48
68301;BME280;55146;47.468;18.806;2023-01-28T12:02:48;100367.97;;;4.14;83.27
68301;BME280;55146;47.468;18.806;2023-01-28T12:05:47;100362.09;;;4.17;82.48
68301;BME280;55146;47.468;18.806;2023-01-28T12:08:23;100365.16;;;4.02;82.33
68301;BME280;55146;47.468;18.806;2023-01-28T12:11:07;100361.19;;;4.23;83.65
68301;BME280;55146;47.468;18.806;2023-01-28T12:14:03;100356.66;;;4.35;82.74
68301;BME280;55146;47.468;18.806;2023-01-28T12:16:45;100355.59;;;4.36;82.75
68301;BME280;55146;47.468;18.806;2023-01-28T12:22:03;100357.12;;;4.32;81.52
68301;BME280;55146;47.468;18.806;2023-01-28T12:30:38;100356.03;;;4.15;81.00
68301;BME280;55146;47.468;18.806;2023-01-28T12:33:21;100352.94;;;4.11;80.96
68301;BME280;55146;47.468;18.806;2023-01-28T12:38:51;100352.25;;;4.16;80.70
68301;BME280;55146;47.468;18.806;2023-01-28T12:41:24;100358.44;;;4.04;80.10
68301;BME280;55146;47.468;18.806;2023-01-28T12:46:49;100355.19;;;3.96;80.66
68301;BME280;55146;47.468;18.806;2023-01-28T12:49:24;100355.84;;;3.91;81.96
68301;BME280;55146;47.468;18.806;2023-01-28T12:52:07;100357.06;;;3.95;82.35
68301;BME280;55146;47.468;18.806;2023-01-28T12:54:39;100360.88;;;3.94;82.40
68301;BME280;55146;47.468;18.806;2023-01-28T12:57:13;100363.91;;;4.04;82.75
68301;BME280;55146;47.468;18.806;2023-01-28T12:59:49;100366.47;;;3.99;81.82
68301;BME280;55146;47.468;18.806;2023-01-28T13:02:40;100363.34;;;3.96;82.39
68301;BME280;55146;47.468;18.806;2023-01-28T13:05:17;100368.41;;;3.92;82.98
68301;BME280;55146;47.468;18.806;2023-01-28T13:07:53;100366.47;;;3.99;83.54
68301;BME280;55146;47.468;18.806;2023-01-28T13:10:28;100359.50;;;4.03;81.97
68301;BME280;55146;47.468;18.806;2023-01-28T13:12:55;100369.19;;;3.99;81.67
68301;BME280;55146;47.468;18.806;2023-01-28T13:15:22;100365.00;;;3.97;82.45
68301;BME280;55146;47.468;18.806;2023-01-28T13:17:54;100372.69;;;4.06;81.91
68301;BME280;55146;47.468;18.806;2023-01-28T13:20:45;100370.84;;;4.00;81.16
68301;BME280;55146;47.468;18.806;2023-01-28T13:28:49;100374.91;;;3.91;81.14
68301;BME280;55146;47.468;18.806;2023-01-28T13:31:20;100381.81;;;3.94;81.55
68301;BME280;55146;47.468;18.806;2023-01-28T13:39:20;100393.13;;;3.91;81.22
68301;BME280;55146;47.468;18.806;2023-01-28T13:44:37;100402.13;;;3.91;81.64
68301;BME280;55146;47.468;18.806;2023-01-28T13:49:36;100401.38;;;4.02;82.01
68301;BME280;55146;47.468;18.806;2023-01-28T13:54:37;100411.94;;;3.92;83.53
68301;BME280;55146;47.468;18.806;2023-01-28T13:57:13;100410.06;;;3.93;83.76
68301;BME280;55146;47.468;18.806;2023-01-28T14:06:12;100410.97;;;3.87;82.93
68301;BME280;55146;47.468;18.806;2023-01-28T14:16:55;100415.09;;;3.64;83.87
68301;BME280;55146;47.468;18.806;2023-01-28T14:19:29;100422.00;;;3.67;84.26
68301;BME280;55146;47.468;18.806;2023-01-28T14:21:56;100423.47;;;3.70;83.47
68301;BME280;55146;47.468;18.806;2023-01-28T14:24:22;100422.38;;;3.71;83.31
68301;BME280;55146;47.468;18.806;2023-01-28T14:29:47;100427.91;;;3.64;83.63
68301;BME280;55146;47.468;18.806;2023-01-28T14:32:17;100429.53;;;3.65;83.79
68301;BME280;55146;47.468;18.806;2023-01-28T14:34:44;100441.84;;;3.74;83.81
68301;BME280;55146;47.468;18.806;2023-01-28T14:37:30;100441.22;;;3.72;83.92
68301;BME280;55146;47.468;18.806;2023-01-28T14:39:59;100436.28;;;3.62;83.52